createdAt,value
2018-09-08T00:02:21.486Z,42.46
2018-09-08T00:04:50.839Z,42.46
2018-09-08T00:07:41.973Z,43.60
2018-09-08T00:10:11.789Z,44.21
2018-09-08T00:12:42.051Z,43.23
2018-09-08T00:15:18.864Z,43.19
2018-09-08T00:17:54.305Z,42.31
2018-09-08T00:20:28.643Z,41.90
2018-09-08T00:23:03.044Z,42.94
2018-09-08T00:25:40.154Z,41.95
2018-09-08T00:32:34.246Z,41.95
2018-09-08T00:35:04.656Z,43.44
2018-09-08T00:37:34.873Z,42.61
2018-09-08T00:40:05.163Z,43.24
2018-09-08T00:42:35.492Z,42.95
2018-09-08T00:45:06.299Z,42.60
2018-09-08T00:47:36.495Z,42.76
2018-09-08T00:50:05.997Z,42.74
2018-09-08T00:52:36.279Z,43.44
2018-09-08T00:55:05.566Z,43.55
2018-09-08T00:57:34.865Z,44.99
2018-09-08T01:00:05.761Z,44.88
2018-09-08T01:02:35.163Z,45.20
2018-09-08T01:05:06.819Z,45.06
2018-09-08T01:07:38.848Z,45.61
2018-09-08T01:10:10.399Z,45.44
2018-09-08T01:12:39.678Z,44.94
2018-09-08T01:15:11.665Z,45.19
2018-09-08T01:17:42.639Z,44.25
2018-09-08T01:20:12.148Z,44.33
2018-09-08T01:22:43.188Z,44.89
2018-09-08T01:25:15.267Z,44.28
2018-09-08T01:27:45.691Z,44.71
2018-09-08T01:30:15.605Z,44.84
2018-09-08T01:32:44.960Z,44.65
2018-09-08T01:35:14.741Z,45.44
2018-09-08T01:37:44.052Z,44.49
2018-09-08T01:40:16.120Z,45.78
2018-09-08T01:42:45.432Z,46.42
2018-09-08T01:45:16.123Z,45.64
2018-09-08T01:47:46.378Z,46.42
2018-09-08T01:50:15.781Z,45.82
2018-09-08T01:52:45.102Z,46.43
2018-09-08T01:55:14.484Z,46.23
2018-09-08T01:57:45.504Z,46.65
2018-09-08T02:00:16.224Z,46.21
2018-09-08T02:02:47.427Z,45.55
2018-09-08T02:05:19.421Z,45.25
2018-09-08T02:07:48.775Z,45.94
2018-09-08T02:10:19.877Z,45.86
2018-09-08T02:12:49.623Z,46.18
2018-09-08T02:15:21.550Z,45.71
2018-09-08T02:17:51.832Z,46.52
2018-09-08T02:20:21.827Z,46.37
2018-09-08T02:22:51.169Z,47.03
2018-09-08T02:25:22.381Z,47.00
2018-09-08T02:27:53.801Z,46.57
2018-09-08T02:30:26.309Z,46.68
2018-09-08T02:32:56.700Z,46.43
2018-09-08T02:35:27.440Z,47.12
2018-09-08T02:37:56.921Z,47.60
2018-09-08T02:40:27.646Z,47.40
2018-09-08T02:42:58.004Z,47.39
2018-09-08T02:45:28.281Z,47.06
2018-09-08T02:48:00.943Z,47.24
2018-09-08T02:50:31.460Z,47.89
2018-09-08T02:53:02.484Z,47.65
2018-09-08T02:55:31.706Z,47.92
2018-09-08T02:58:01.750Z,47.76
2018-09-08T03:00:30.961Z,47.79
2018-09-08T03:03:00.759Z,47.60
2018-09-08T03:05:28.995Z,46.84
2018-09-08T03:07:57.809Z,47.82
2018-09-08T03:10:25.746Z,47.47
2018-09-08T03:12:54.282Z,46.91
2018-09-08T03:15:25.657Z,47.48
2018-09-08T03:17:54.524Z,47.42
2018-09-08T03:20:23.331Z,47.04
2018-09-08T03:22:53.077Z,47.05
2018-09-08T03:25:21.159Z,47.16
2018-09-08T03:27:49.107Z,47.00
2018-09-08T03:30:18.022Z,47.44
2018-09-08T03:32:46.811Z,46.92
2018-09-08T03:35:15.661Z,47.21
2018-09-08T03:37:44.463Z,46.95
2018-09-08T03:40:12.371Z,47.37
2018-09-08T03:42:41.200Z,47.45
2018-09-08T03:45:09.164Z,47.09
2018-09-08T03:47:38.005Z,46.89
2018-09-08T03:50:05.963Z,46.93
2018-09-08T03:52:34.853Z,47.28
2018-09-08T03:55:03.619Z,47.34
2018-09-08T03:57:32.452Z,47.34
2018-09-08T04:00:01.304Z,47.35
2018-09-08T04:02:30.243Z,47.38
2018-09-08T04:05:01.182Z,47.79
2018-09-08T04:07:31.392Z,47.85
2018-09-08T04:10:04.553Z,47.64
2018-09-08T04:12:34.780Z,47.63
2018-09-08T04:15:04.142Z,47.90
2018-09-08T04:17:33.572Z,47.78
2018-09-08T04:20:03.824Z,47.08
2018-09-08T04:22:35.904Z,46.94
2018-09-08T04:25:07.608Z,47.40
2018-09-08T04:27:37.936Z,46.93
2018-09-08T04:30:08.215Z,47.22
2018-09-08T04:32:38.427Z,46.39
2018-09-08T04:35:08.664Z,47.28
2018-09-08T04:37:39.857Z,46.88
2018-09-08T04:40:10.084Z,46.99
2018-09-08T04:42:40.256Z,46.70
2018-09-08T04:45:09.977Z,46.91
2018-09-08T04:47:41.184Z,46.11
2018-09-08T04:50:11.526Z,46.99
2018-09-08T04:52:42.780Z,46.36
2018-09-08T04:55:13.211Z,46.64
2018-09-08T04:57:43.528Z,46.46
2018-09-08T05:00:15.352Z,46.15
2018-09-08T05:02:46.608Z,46.24
2018-09-08T05:05:16.951Z,46.79
2018-09-08T05:07:47.521Z,46.21
2018-09-08T05:10:17.800Z,46.51
2018-09-08T05:12:48.099Z,46.02
2018-09-08T05:15:19.291Z,46.10
2018-09-08T05:17:49.594Z,45.86
2018-09-08T05:20:19.814Z,45.78
2018-09-08T05:22:50.128Z,45.72
2018-09-08T05:25:20.319Z,44.09
2018-09-08T05:27:50.611Z,42.66
2018-09-08T05:30:23.420Z,41.99
2018-09-08T05:32:53.679Z,40.64
2018-09-08T05:35:25.007Z,40.38
2018-09-08T05:37:55.427Z,39.75
2018-09-08T05:40:26.821Z,38.33
2018-09-08T05:42:57.146Z,38.37
2018-09-08T05:45:28.548Z,37.42
2018-09-08T05:47:58.921Z,36.15
2018-09-08T05:50:29.094Z,35.80
2018-09-08T05:53:00.752Z,35.30
2018-09-08T05:55:31.412Z,35.03
2018-09-08T05:58:01.728Z,34.35
2018-09-08T06:00:32.958Z,33.45
2018-09-08T06:03:03.237Z,33.05
2018-09-08T06:05:36.091Z,31.61
2018-09-08T06:08:07.253Z,30.52
2018-09-08T06:10:37.994Z,30.59
2018-09-08T06:16:10.895Z,29.47
2018-09-08T06:18:40.248Z,29.51
2018-09-08T06:21:09.609Z,29.21
2018-09-08T06:23:40.748Z,27.85
2018-09-08T06:26:12.292Z,28.48
2018-09-08T06:28:42.693Z,28.07
2018-09-08T06:31:13.174Z,28.13
2018-09-08T06:33:43.495Z,27.60
2018-09-08T06:36:13.739Z,28.52
2018-09-08T06:38:44.898Z,28.53
2018-09-08T06:41:16.006Z,27.37
2018-09-08T06:43:48.108Z,26.68
2018-09-08T06:46:19.560Z,26.37
2018-09-08T06:48:50.702Z,27.17
2018-09-08T06:51:22.634Z,26.22
2018-09-08T06:53:55.087Z,27.09
2018-09-08T06:56:26.191Z,27.54
2018-09-08T06:58:57.288Z,27.54
2018-09-08T07:01:28.609Z,26.51
2018-09-08T07:04:00.656Z,26.73
2018-09-08T07:06:38.146Z,27.08
2018-09-08T07:09:10.656Z,27.10
2018-09-08T07:11:41.864Z,26.27
2018-09-08T07:14:13.082Z,25.91
2018-09-08T07:16:44.249Z,26.10
2018-09-08T07:19:15.415Z,26.24
2018-09-08T07:21:47.512Z,25.71
2018-09-08T07:24:18.602Z,25.65
2018-09-08T07:26:49.780Z,25.71
2018-09-08T07:29:21.007Z,24.92
2018-09-08T07:31:52.947Z,24.83
2018-09-08T07:34:24.052Z,24.81
2018-09-08T07:36:55.321Z,24.78
2018-09-08T07:39:29.036Z,25.24
2018-09-08T07:42:00.215Z,25.29
2018-09-08T07:44:31.964Z,24.79
2018-09-08T07:47:04.611Z,25.63
2018-09-08T07:49:36.113Z,23.66
2018-09-08T07:52:07.303Z,24.76
2018-09-08T07:54:38.389Z,24.84
2018-09-08T07:57:12.055Z,25.15
2018-09-08T07:59:43.371Z,25.59
2018-09-08T08:02:15.547Z,26.14
2018-09-08T08:04:46.673Z,25.69
2018-09-08T08:07:17.848Z,25.93
2018-09-08T08:09:50.116Z,25.49
2018-09-08T08:12:23.211Z,25.05
2018-09-08T08:14:54.549Z,26.15
2018-09-08T08:17:25.669Z,25.64
2018-09-08T08:19:58.411Z,25.48
2018-09-08T08:22:29.561Z,25.50
2018-09-08T08:25:00.671Z,25.74
2018-09-08T08:27:31.801Z,25.51
2018-09-08T08:30:03.240Z,25.36
2018-09-08T08:32:35.015Z,26.33
2018-09-08T08:35:06.239Z,25.09
2018-09-08T08:37:37.338Z,25.29
2018-09-08T08:40:08.484Z,26.52
2018-09-08T08:42:39.603Z,26.04
2018-09-08T08:45:12.570Z,25.82
2018-09-08T08:47:43.691Z,25.21
2018-09-08T08:50:25.816Z,25.00
2018-09-08T08:55:11.344Z,24.30
2018-09-08T08:57:42.692Z,24.67
2018-09-08T09:00:16.095Z,25.08
2018-09-08T09:02:47.855Z,25.45
2018-09-08T09:05:20.696Z,24.99
2018-09-08T09:07:53.725Z,24.76
2018-09-08T09:10:26.798Z,24.62
2018-09-08T09:12:59.708Z,24.88
2018-09-08T09:15:31.425Z,25.98
2018-09-08T09:18:02.442Z,26.44
2018-09-08T09:22:48.585Z,26.82
2018-09-08T09:25:19.054Z,24.86
2018-09-08T09:27:51.247Z,25.08
2018-09-08T09:30:26.193Z,25.30
2018-09-08T09:32:57.352Z,24.50
2018-09-08T09:35:29.246Z,24.59
2018-09-08T09:38:00.381Z,24.26
2018-09-08T09:40:31.470Z,24.33
2018-09-08T09:43:02.644Z,24.99
2018-09-08T09:45:33.788Z,25.14
2018-09-08T09:48:04.972Z,24.68
2018-09-08T09:50:36.092Z,24.58
2018-09-08T09:53:07.291Z,23.99
2018-09-08T09:55:38.403Z,24.15
2018-09-08T09:58:10.119Z,23.24
2018-09-08T10:00:46.374Z,23.58
2018-09-08T10:03:19.491Z,22.54
2018-09-08T10:05:50.612Z,23.00
2018-09-08T10:08:21.754Z,21.84
2018-09-08T10:10:53.628Z,21.81
2018-09-08T10:13:24.756Z,21.95
2018-09-08T10:15:56.819Z,22.29
2018-09-08T10:18:29.281Z,21.05
2018-09-08T10:21:00.463Z,22.29
2018-09-08T10:23:32.283Z,22.72
2018-09-08T10:26:03.605Z,22.44
2018-09-08T10:28:34.792Z,21.79
2018-09-08T10:31:07.503Z,22.57
2018-09-08T10:33:39.894Z,21.82
2018-09-08T10:36:11.309Z,21.90
2018-09-08T10:38:42.473Z,22.14
2018-09-08T10:41:13.671Z,22.20
2018-09-08T10:43:44.924Z,22.28
2018-09-08T10:46:21.234Z,21.44
2018-09-08T10:48:52.372Z,20.66
2018-09-08T10:52:05.193Z,19.76
2018-09-08T10:54:36.967Z,20.38
2018-09-08T10:57:08.453Z,20.74
2018-09-08T10:59:41.036Z,20.63
2018-09-08T11:02:12.391Z,20.59
2018-09-08T11:04:43.568Z,20.87
2018-09-08T11:07:14.783Z,19.49
2018-09-08T11:09:46.593Z,19.44
2018-09-08T11:12:17.719Z,19.38
2018-09-08T11:14:49.858Z,19.14
2018-09-08T11:17:21.521Z,19.31
2018-09-08T11:19:54.899Z,19.36
2018-09-08T11:22:26.046Z,18.77
2018-09-08T11:24:57.234Z,18.57
2018-09-08T11:27:28.441Z,18.49
2018-09-08T11:29:59.639Z,19.19
2018-09-08T11:32:30.775Z,19.97
2018-09-08T11:35:02.983Z,18.19
2018-09-08T11:37:34.176Z,19.31
2018-09-08T11:40:05.350Z,20.01
2018-09-08T11:42:36.551Z,19.46
2018-09-08T11:45:08.311Z,19.47
2018-09-08T11:47:39.427Z,18.78
2018-09-08T11:50:12.111Z,19.59
2018-09-08T11:52:45.219Z,19.00
2018-09-08T11:55:16.607Z,19.51
2018-09-08T11:57:48.345Z,18.16
2018-09-08T12:00:21.330Z,18.93
2018-09-08T12:02:52.529Z,19.25
2018-09-08T12:05:24.842Z,19.77
2018-09-08T12:07:56.221Z,19.65
2018-09-08T12:10:30.446Z,20.21
2018-09-08T12:13:04.711Z,19.99
2018-09-08T12:15:38.302Z,19.45
2018-09-08T12:18:10.165Z,19.45
2018-09-08T12:20:41.665Z,19.59
2018-09-08T12:23:14.157Z,19.78
2018-09-08T12:25:45.453Z,19.14
2018-09-08T12:28:16.652Z,19.75
2018-09-08T12:30:48.854Z,19.70
2018-09-08T12:33:20.104Z,19.19
2018-09-08T12:35:53.857Z,18.49
2018-09-08T12:38:27.102Z,18.83
2018-09-08T12:40:58.339Z,18.78
2018-09-08T12:43:32.081Z,18.04
2018-09-08T12:46:04.395Z,18.43
2018-09-08T12:48:36.328Z,18.80
2018-09-08T12:51:09.476Z,18.74
2018-09-08T12:53:41.481Z,18.51
2018-09-08T12:56:12.797Z,18.55
2018-09-08T12:58:44.158Z,18.65
2018-09-08T13:01:15.880Z,18.62
2018-09-08T13:03:48.427Z,18.64
2018-09-08T13:06:19.608Z,18.53
2018-09-08T13:08:50.783Z,18.48
2018-09-08T13:11:21.947Z,17.93
2018-09-08T13:13:54.511Z,18.92
2018-09-08T13:16:25.615Z,18.24
2018-09-08T13:18:56.759Z,18.92
2018-09-08T13:21:30.330Z,19.12
2018-09-08T13:24:01.486Z,19.10
2018-09-08T13:26:33.621Z,19.63
2018-09-08T13:29:05.788Z,19.06
2018-09-08T13:31:37.613Z,19.33
2018-09-08T13:34:08.803Z,19.73
2018-09-08T13:36:43.560Z,19.34
2018-09-08T13:39:15.600Z,18.82
2018-09-08T13:41:48.242Z,18.31
2018-09-08T13:44:19.381Z,18.85
2018-09-08T13:46:50.578Z,19.26
2018-09-08T13:49:24.679Z,18.51
2018-09-08T13:51:58.828Z,18.29
2018-09-08T13:54:29.929Z,18.73
2018-09-08T13:57:01.439Z,18.85
2018-09-08T13:59:32.650Z,18.08
2018-09-08T14:02:03.832Z,18.61
2018-09-08T14:04:35.061Z,18.16
2018-09-08T14:07:08.590Z,18.59
2018-09-08T14:09:39.800Z,18.25
2018-09-08T14:12:11.205Z,18.47
2018-09-08T14:14:42.550Z,18.15
2018-09-08T14:17:13.709Z,18.25
2018-09-08T14:19:44.837Z,17.90
2018-09-08T14:22:16.917Z,18.16
2018-09-08T14:24:50.573Z,18.20
2018-09-08T14:27:23.009Z,18.26
2018-09-08T14:29:54.673Z,18.13
2018-09-08T14:32:25.794Z,18.21
2018-09-08T14:34:58.103Z,18.71
2018-09-08T14:37:29.213Z,18.50
2018-09-08T14:40:00.410Z,18.53
2018-09-08T14:42:31.528Z,18.11
2018-09-08T14:45:03.881Z,18.01
2018-09-08T14:47:34.995Z,19.04
2018-09-08T14:50:06.457Z,19.12
2018-09-08T14:52:37.647Z,17.77
2018-09-08T14:55:08.776Z,18.70
2018-09-08T14:57:41.265Z,18.69
2018-09-08T15:00:14.132Z,19.13
2018-09-08T15:02:46.296Z,20.00
2018-09-08T15:05:17.434Z,19.76
2018-09-08T15:07:48.735Z,19.32
2018-09-08T15:10:19.160Z,19.67
2018-09-08T15:12:50.264Z,20.09
2018-09-08T15:15:24.307Z,20.54
2018-09-08T15:17:55.458Z,20.44
2018-09-08T15:20:27.276Z,20.15
2018-09-08T15:22:58.505Z,19.27
2018-09-08T15:25:29.663Z,19.76
2018-09-08T15:28:01.466Z,20.16
2018-09-08T15:30:33.382Z,19.89
2018-09-08T15:33:08.210Z,20.01
2018-09-08T15:35:39.359Z,20.05
2018-09-08T15:38:10.435Z,19.51
2018-09-08T15:40:41.568Z,19.91
2018-09-08T15:43:12.719Z,20.00
2018-09-08T15:45:43.964Z,20.23
2018-09-08T15:48:15.250Z,20.33
2018-09-08T15:50:47.239Z,20.35
2018-09-08T15:53:18.417Z,20.30
2018-09-08T15:55:50.876Z,20.24
2018-09-08T15:58:22.932Z,20.55
2018-09-08T16:00:54.239Z,19.64
2018-09-08T16:03:25.512Z,19.89
2018-09-08T16:05:57.372Z,20.53
2018-09-08T16:08:28.501Z,20.53
2018-09-08T16:10:59.833Z,20.89
2018-09-08T16:13:31.207Z,21.64
2018-09-08T16:16:02.606Z,21.64
2018-09-08T16:18:34.579Z,21.80
2018-09-08T16:21:05.845Z,22.03
2018-09-08T16:23:36.956Z,21.30
2018-09-08T16:26:09.427Z,21.88
2018-09-08T16:28:40.630Z,22.04
2018-09-08T16:31:12.762Z,21.51
2018-09-08T16:33:43.913Z,21.55
2018-09-08T16:36:18.778Z,21.54
2018-09-08T16:38:50.073Z,21.73
2018-09-08T16:41:21.358Z,22.33
2018-09-08T16:43:53.971Z,22.49
2018-09-08T16:46:25.164Z,22.55
2018-09-08T16:48:56.328Z,22.54
2018-09-08T16:51:29.384Z,22.80
2018-09-08T16:54:00.536Z,22.70
2018-09-08T16:56:31.741Z,22.95
2018-09-08T16:59:02.888Z,22.85
2018-09-08T17:01:35.677Z,22.96
2018-09-08T17:04:06.853Z,22.77
2018-09-08T17:06:40.274Z,22.88
2018-09-08T17:09:11.828Z,22.36
2018-09-08T17:11:43.000Z,22.82
2018-09-08T17:14:14.942Z,22.83
2018-09-08T17:16:46.052Z,23.15
2018-09-08T17:19:18.408Z,23.00
2018-09-08T17:21:50.573Z,23.00
2018-09-08T17:24:23.049Z,23.39
2018-09-08T17:26:55.632Z,23.53
2018-09-08T17:29:27.484Z,23.00
2018-09-08T17:31:59.612Z,22.87
2018-09-08T17:34:31.912Z,23.97
2018-09-08T17:37:04.050Z,23.13
2018-09-08T17:39:35.167Z,23.85
2018-09-08T17:42:06.382Z,23.34
2018-09-08T17:44:37.536Z,24.08
2018-09-08T17:47:08.872Z,24.00
2018-09-08T17:49:44.464Z,23.48
2018-09-08T17:52:16.431Z,23.65
2018-09-08T17:54:49.724Z,23.20
2018-09-08T17:57:22.501Z,24.06
2018-09-08T17:59:54.389Z,23.34
2018-09-08T18:02:25.583Z,23.83
2018-09-08T18:04:57.600Z,23.74
2018-09-08T18:07:29.795Z,23.80
2018-09-08T18:10:03.221Z,24.95
2018-09-08T18:12:34.454Z,24.56
2018-09-08T18:15:06.394Z,24.86
2018-09-08T18:17:38.128Z,24.23
2018-09-08T18:20:10.500Z,24.90
2018-09-08T18:22:41.651Z,23.86
2018-09-08T18:25:13.658Z,24.42
2018-09-08T18:27:44.836Z,24.60
2018-09-08T18:30:18.478Z,24.20
2018-09-08T18:32:50.417Z,24.42
2018-09-08T18:35:22.525Z,24.66
2018-09-08T18:37:55.428Z,24.76
2018-09-08T18:40:27.382Z,24.83
2018-09-08T18:43:03.399Z,25.06
2018-09-08T18:45:34.740Z,25.55
2018-09-08T18:48:05.925Z,25.89
2018-09-08T18:50:37.238Z,25.94
2018-09-08T18:53:09.605Z,25.46
2018-09-08T18:55:41.381Z,25.37
2018-09-08T18:58:13.325Z,25.43
2018-09-08T19:00:45.008Z,26.21
2018-09-08T19:03:17.101Z,26.81
2018-09-08T19:05:50.492Z,27.10
2018-09-08T19:08:21.677Z,27.17
2018-09-08T19:10:52.503Z,27.60
2018-09-08T19:13:24.589Z,28.06
2018-09-08T19:15:56.860Z,27.64
2018-09-08T19:18:27.134Z,27.15
2018-09-08T19:20:59.380Z,27.61
2018-09-08T19:23:30.449Z,27.19
2018-09-08T19:26:02.322Z,27.64
2018-09-08T19:28:33.411Z,27.09
2018-09-08T19:31:06.535Z,27.13
2018-09-08T19:33:36.777Z,27.96
2018-09-08T19:36:09.700Z,28.33
2018-09-08T19:38:42.123Z,28.05
2018-09-08T19:41:16.943Z,27.45
2018-09-08T19:43:48.225Z,27.99
2018-09-08T19:46:25.363Z,27.71
2018-09-08T19:48:57.261Z,27.78
2018-09-08T19:51:30.898Z,27.29
2018-09-08T19:54:02.919Z,27.70
2018-09-08T19:56:39.840Z,28.05
2018-09-08T19:59:13.478Z,28.52
2018-09-08T20:01:45.373Z,27.63
2018-09-08T20:04:17.288Z,28.33
2018-09-08T20:06:48.353Z,28.94
2018-09-08T20:09:22.785Z,29.28
2018-09-08T20:11:54.591Z,29.35
2018-09-08T20:14:25.780Z,29.79
2018-09-08T20:16:59.397Z,29.57
2018-09-08T20:19:32.556Z,30.19
2018-09-08T20:22:06.204Z,30.52
2018-09-08T20:24:39.220Z,30.50
2018-09-08T20:27:11.300Z,30.10
2018-09-08T20:29:43.588Z,30.53
2018-09-08T20:32:15.512Z,30.20
2018-09-08T20:35:08.287Z,31.00
2018-09-08T20:37:55.902Z,30.96
2018-09-08T20:40:28.250Z,30.61
2018-09-08T20:43:00.274Z,31.44
2018-09-08T20:45:46.594Z,31.08
2018-09-08T20:48:19.421Z,31.55
2018-09-08T20:50:57.322Z,31.63
2018-09-08T20:53:27.697Z,30.89
2018-09-08T20:55:58.773Z,30.91
2018-09-08T20:58:30.807Z,30.69
2018-09-08T21:01:03.536Z,31.41
2018-09-08T21:03:35.104Z,31.08
2018-09-08T21:06:07.258Z,31.71
2018-09-08T21:08:38.935Z,31.48
2018-09-08T21:11:11.449Z,31.31
2018-09-08T21:13:42.574Z,32.51
2018-09-08T21:16:14.704Z,32.27
2018-09-08T21:18:44.989Z,33.14
2018-09-08T21:21:17.037Z,32.54
2018-09-08T21:23:49.205Z,33.06
2018-09-08T21:26:20.224Z,32.48
2018-09-08T21:28:52.480Z,33.09
2018-09-08T21:31:22.697Z,33.20
2018-09-08T21:33:52.990Z,32.71
2018-09-08T21:36:24.566Z,32.36
2018-09-08T21:38:55.888Z,33.06
2018-09-08T21:41:27.654Z,33.60
2018-09-08T21:43:57.639Z,33.98
2018-09-08T21:46:29.056Z,33.80
2018-09-08T21:48:59.266Z,33.40
2018-09-08T21:51:31.992Z,34.03
2018-09-08T21:54:06.388Z,33.66
2018-09-08T21:56:35.717Z,33.38
2018-09-08T21:59:06.585Z,33.63
2018-09-08T22:01:38.452Z,33.98
2018-09-08T22:04:09.467Z,34.47
2018-09-08T22:06:40.812Z,34.08
2018-09-08T22:09:11.311Z,33.83
2018-09-08T22:11:45.314Z,34.12
2018-09-08T22:14:16.556Z,34.05
2018-09-08T22:16:48.751Z,34.04
2018-09-08T22:19:19.820Z,33.83
2018-09-08T22:21:51.918Z,33.73
2018-09-08T22:24:22.361Z,33.25
2018-09-08T22:26:55.090Z,34.14
2018-09-08T22:29:29.121Z,34.38
2018-09-08T22:32:00.369Z,34.21
2018-09-08T22:34:30.706Z,34.88
2018-09-08T22:37:02.515Z,34.73
2018-09-08T22:39:38.584Z,34.32
2018-09-08T22:42:09.000Z,34.93
2018-09-08T22:44:40.813Z,34.46
2018-09-08T22:47:12.791Z,35.17
2018-09-08T22:49:45.010Z,34.98
2018-09-08T22:52:16.237Z,34.48
2018-09-08T22:54:47.592Z,35.11
2018-09-08T22:57:17.907Z,35.11
2018-09-08T22:59:50.417Z,34.86
2018-09-08T23:02:24.147Z,35.93
2018-09-08T23:04:55.813Z,35.18
2018-09-08T23:07:26.948Z,35.19
2018-09-08T23:10:00.244Z,35.92
2018-09-08T23:12:34.077Z,36.04
2018-09-08T23:15:08.102Z,35.79
2018-09-08T23:17:39.287Z,36.30
2018-09-08T23:20:09.648Z,35.80
2018-09-08T23:22:41.021Z,35.62
2018-09-08T23:25:11.521Z,35.67
2018-09-08T23:27:42.549Z,35.44
2018-09-08T23:30:14.308Z,35.56
2018-09-08T23:32:45.430Z,36.50
2018-09-08T23:35:16.547Z,35.94
2018-09-08T23:37:48.575Z,36.04
2018-09-08T23:40:19.620Z,36.51
2018-09-08T23:42:50.480Z,36.50
2018-09-08T23:45:24.356Z,36.28
2018-09-08T23:47:54.560Z,36.60
2018-09-08T23:50:25.013Z,37.17
2018-09-08T23:52:56.393Z,37.28
2018-09-08T23:55:26.635Z,38.48
2018-09-08T23:57:57.051Z,38.89
